This is the latest recevied weather packets stored in our database for station/object RK6MF-10. If no packets are shown the sender has not sent any weather packets the latest 10 day(s).
| Time | Temp. | Humidity | Pressure | Rain* | Wind** | Luminosity | Snow |
|---|---|---|---|---|---|---|---|
| 1777906065 | 12.78° C | 53% | 1008.7 hPa | - | - | - | - |
| 1777905165 | 13.33° C | 53% | 1008.7 hPa | - | - | - | - |
| 1777904264 | 13.89° C | 51% | 1008.6 hPa | - | - | - | - |
| 1777902468 | 13.89° C | 48% | 1008.7 hPa | - | - | - | - |
| 1777901568 | 14.44° C | 47% | 1008.6 hPa | - | - | - | - |
| 1777900667 | 14.44° C | 47% | 1008.5 hPa | - | - | - | - |
| 1777897967 | 14.44° C | 47% | 1008.9 hPa | - | - | - | - |
| 1777897067 | 14.44° C | 48% | 1009.3 hPa | - | - | - | - |
| 1777896167 | 13.89° C | 49% | 1009.1 hPa | - | - | - | - |
| 1777895267 | 13.89° C | 49% | 1009.2 hPa | - | - | - | - |
| 1777894367 | 13.89° C | 50% | 1009.2 hPa | - | - | - | - |
| 1777893467 | 14.44° C | 47% | 1009.3 hPa | - | - | - | - |
| 1777892567 | 15° C | 47% | 1009.5 hPa | - | - | - | - |
| 1777891667 | 15° C | 49% | 1009.6 hPa | - | - | - | - |
| 1777889866 | 16.67° C | 43% | 1009.7 hPa | - | - | - | - |
| 1777888966 | 16.67° C | 45% | 1009.7 hPa | - | - | - | - |
| 1777887166 | 16.11° C | 46% | 1009.8 hPa | - | - | - | - |
| 1777886266 | 15.56° C | 46% | 1010.1 hPa | - | - | - | - |
| 1777885366 | 15.56° C | 47% | 1010 hPa | - | - | - | - |
| 1777884466 | 14.44° C | 50% | 1010.3 hPa | - | - | - | - |
| 1777883566 | 14.44° C | 48% | 1010.1 hPa | - | - | - | - |
| 1777882665 | 13.89° C | 53% | 1010.3 hPa | - | - | - | - |
| 1777880866 | 13.33° C | 59% | 1010.3 hPa | - | - | - | - |
| 1777879966 | 12.78° C | 63% | 1010.3 hPa | - | - | - | - |
| 1777879066 | 12.78° C | 68% | 1010.5 hPa | - | - | - | - |
* Rain since midnight (hover to see other rain measurements)
** Current wind speed in m/s (hover to see current wind gust speed)